Prairie Center, Nebraska
Current Conditions -  °F | °C
As of 3:35 PM on Saturday 25 Oct 2014 (Local Time) from KEAR Reporting Station
Clear Clear  
Wind Chill: 75°   Ceiling: Unl
Heat Index: 75°   Visibility: 9mi
Dew Point: 46°   Wind: 14mph
Humidity: 36%   Direction: 80°E
Pressure: 30.05"   Gusts: NA
Location:  40.7619°N, 99.1445°W
Report Text: KEAR 252035Z 08012KT 9SM CLR 24/08 A3005 RMK AO1
Loading
Personal Weather Stations






























Interactive Weather Map
Tropical Storm Tracking
New forecast layout! Learn more

10-Day Weather Forecast

Advertisements
Track Severe Weather on mobile